createdAt,value
2018-08-28T00:02:20.599Z,26.97
2018-08-28T00:04:50.398Z,24.73
2018-08-28T00:07:19.203Z,21.07
2018-08-28T00:09:47.620Z,25.60
2018-08-28T00:12:16.062Z,21.50
2018-08-28T00:14:44.548Z,21.67
2018-08-28T00:17:13.090Z,25.37
2018-08-28T00:28:20.482Z,21.37
2018-08-28T00:30:48.841Z,23.27
2018-08-28T00:33:17.213Z,31.60
2018-08-28T00:35:45.554Z,32.83
2018-08-28T00:38:13.898Z,26.60
2018-08-28T00:40:42.275Z,42.30
2018-08-28T00:43:10.645Z,27.23
2018-08-28T00:45:39.009Z,26.93
2018-08-28T00:48:07.442Z,25.97
2018-08-28T00:50:35.785Z,33.10
2018-08-28T00:53:04.147Z,28.70
2018-08-28T00:55:32.474Z,31.70
2018-08-28T00:58:00.808Z,25.33
2018-08-28T01:00:29.206Z,26.93
2018-08-28T01:02:57.566Z,41.70
2018-08-28T01:05:25.933Z,36.73
2018-08-28T01:07:54.561Z,30.17
2018-08-28T01:10:23.008Z,33.20
2018-08-28T01:12:51.405Z,26.33
2018-08-28T01:15:19.892Z,33.37
2018-08-28T01:17:48.216Z,32.63
2018-08-28T01:20:16.654Z,32.50
2018-08-28T01:22:45.149Z,30.90
2018-08-28T01:25:13.530Z,31.77
2018-08-28T01:27:41.874Z,29.07
2018-08-28T01:30:10.250Z,28.53
2018-08-28T01:32:38.669Z,32.83
2018-08-28T01:35:07.148Z,26.13
2018-08-28T01:37:35.477Z,34.40
2018-08-28T01:40:03.854Z,37.17
2018-08-28T01:42:32.186Z,38.70
2018-08-28T01:45:00.490Z,38.97
2018-08-28T01:47:31.820Z,43.40
2018-08-28T01:50:00.166Z,44.80
2018-08-28T01:52:28.545Z,35.60
2018-08-28T01:54:56.936Z,41.37
2018-08-28T01:57:25.339Z,40.37
2018-08-28T01:59:53.789Z,36.27
2018-08-28T02:02:22.289Z,30.03
2018-08-28T02:04:50.615Z,27.47
2018-08-28T02:07:19.018Z,25.47
2018-08-28T02:09:47.815Z,27.53
2018-08-28T02:12:16.178Z,22.70
2018-08-28T02:14:44.522Z,25.90
2018-08-28T02:17:12.855Z,21.47
2018-08-28T02:19:41.200Z,33.07
2018-08-28T02:22:09.580Z,30.90
2018-08-28T02:24:38.185Z,34.13
2018-08-28T02:27:06.687Z,18.70
2018-08-28T02:29:35.120Z,23.10
2018-08-28T02:32:03.480Z,19.17
2018-08-28T02:34:31.848Z,25.20
2018-08-28T02:37:00.231Z,22.73
2018-08-28T02:39:28.618Z,23.47
2018-08-28T02:41:57.035Z,18.60
2018-08-28T02:44:25.417Z,36.87
2018-08-28T02:46:53.787Z,33.90
2018-08-28T02:49:22.142Z,34.87
2018-08-28T02:51:50.530Z,26.70
2018-08-28T02:54:18.915Z,28.67
2018-08-28T02:56:47.361Z,21.93
2018-08-28T02:59:15.806Z,29.60
2018-08-28T03:01:44.285Z,25.43
2018-08-28T03:04:12.682Z,20.70
2018-08-28T03:06:41.116Z,20.60
2018-08-28T03:09:09.514Z,21.23
2018-08-28T03:11:38.236Z,19.70
2018-08-28T03:14:06.593Z,20.13
2018-08-28T03:16:34.988Z,29.03
2018-08-28T03:19:03.450Z,21.70
2018-08-28T03:21:32.010Z,29.60
2018-08-28T03:24:00.339Z,22.53
2018-08-28T03:26:28.705Z,22.30
2018-08-28T03:28:57.099Z,19.43
2018-08-28T03:31:25.383Z,20.20
2018-08-28T03:33:53.719Z,27.97
2018-08-28T03:36:22.073Z,30.63
2018-08-28T03:38:50.489Z,28.10
2018-08-28T03:41:18.828Z,35.00
2018-08-28T03:43:47.153Z,43.70
2018-08-28T03:46:15.555Z,27.60
2018-08-28T03:48:43.926Z,30.10
2018-08-28T03:51:12.263Z,37.70
2018-08-28T03:53:40.637Z,38.40
2018-08-28T03:56:09.059Z,33.00
2018-08-28T03:58:37.394Z,40.80
2018-08-28T04:01:05.812Z,33.53
2018-08-28T04:03:34.170Z,42.30
2018-08-28T04:06:02.510Z,28.60
2018-08-28T04:08:30.865Z,32.80
2018-08-28T04:10:59.209Z,25.60
2018-08-28T04:13:27.621Z,32.53
2018-08-28T04:15:55.999Z,33.33
2018-08-28T04:18:24.356Z,30.53
2018-08-28T04:20:52.720Z,27.37
2018-08-28T04:23:21.064Z,32.30
2018-08-28T04:25:49.531Z,27.00
2018-08-28T04:28:17.968Z,32.83
2018-08-28T04:30:46.328Z,23.80
2018-08-28T04:33:14.754Z,28.43
2018-08-28T04:35:43.191Z,26.00
2018-08-28T04:38:11.631Z,23.97
2018-08-28T04:40:40.069Z,24.53
2018-08-28T04:43:08.439Z,36.40
2018-08-28T04:45:36.844Z,21.53
2018-08-28T04:48:05.283Z,21.93
2018-08-28T04:50:33.846Z,28.97
2018-08-28T04:53:02.278Z,19.17
2018-08-28T04:55:30.767Z,29.27
2018-08-28T04:57:59.286Z,25.47
2018-08-28T05:00:27.790Z,25.00
2018-08-28T05:02:56.228Z,21.10
2018-08-28T05:05:24.686Z,26.20
2018-08-28T05:07:53.194Z,19.70
2018-08-28T05:10:22.263Z,21.13
2018-08-28T05:12:50.741Z,29.60
2018-08-28T05:15:19.210Z,20.50
2018-08-28T05:17:47.670Z,27.97
2018-08-28T05:20:16.178Z,26.47
2018-08-28T05:22:44.650Z,28.67
2018-08-28T05:25:13.114Z,18.77
2018-08-28T05:27:41.642Z,24.10
2018-08-28T05:30:10.185Z,21.30
2018-08-28T05:32:38.708Z,21.97
2018-08-28T05:35:07.222Z,27.03
2018-08-28T05:37:35.732Z,15.90
2018-08-28T05:40:04.218Z,22.43
2018-08-28T05:42:32.719Z,31.13
2018-08-28T05:45:01.239Z,18.30
2018-08-28T05:47:29.733Z,33.80
2018-08-28T05:49:58.233Z,25.33
2018-08-28T05:52:26.710Z,15.87
2018-08-28T05:54:55.168Z,22.43
2018-08-28T05:57:23.639Z,18.47
2018-08-28T05:59:52.123Z,29.10
2018-08-28T06:02:20.640Z,20.37
2018-08-28T06:04:49.146Z,22.13
2018-08-28T06:07:17.717Z,13.03
2018-08-28T06:09:46.221Z,17.00
2018-08-28T06:12:14.763Z,19.27
2018-08-28T06:14:43.346Z,21.43
2018-08-28T06:17:11.838Z,16.33
2018-08-28T06:19:40.340Z,22.23
2018-08-28T06:22:08.980Z,22.97
2018-08-28T06:24:37.484Z,24.33
2018-08-28T06:27:06.155Z,15.33
2018-08-28T06:29:34.640Z,21.50
2018-08-28T06:32:03.554Z,26.57
2018-08-28T06:34:32.054Z,20.80
2018-08-28T06:37:00.565Z,23.17
2018-08-28T06:39:28.994Z,19.77
2018-08-28T06:41:57.438Z,19.10
2018-08-28T06:44:25.881Z,20.40
2018-08-28T06:46:54.369Z,20.03
2018-08-28T06:49:22.831Z,16.33
2018-08-28T06:51:57.859Z,16.80
2018-08-28T06:54:26.322Z,13.93
2018-08-28T06:56:54.871Z,10.53
2018-08-28T06:59:23.199Z,11.47
2018-08-28T07:01:51.719Z,11.97
2018-08-28T07:04:20.221Z,7.70
2018-08-28T07:06:48.770Z,17.30
2018-08-28T07:09:17.258Z,8.93
2018-08-28T07:11:45.731Z,10.33
2018-08-28T07:14:14.197Z,11.80
2018-08-28T07:16:42.810Z,11.63
2018-08-28T07:19:11.342Z,15.53
2018-08-28T07:21:39.982Z,10.50
2018-08-28T07:24:08.516Z,13.70
2018-08-28T07:26:37.005Z,8.77
2018-08-28T07:29:05.393Z,9.17
2018-08-28T07:31:33.849Z,6.00
2018-08-28T07:34:02.367Z,9.53
2018-08-28T07:36:30.941Z,11.77
2018-08-28T07:38:59.414Z,3.30
2018-08-28T07:41:27.977Z,3.70
2018-08-28T07:43:56.472Z,6.27
2018-08-28T07:46:25.889Z,5.43
2018-08-28T07:48:54.370Z,6.40
2018-08-28T07:51:22.889Z,4.23
2018-08-28T07:53:51.356Z,3.97
2018-08-28T07:56:19.850Z,9.13
2018-08-28T07:58:48.335Z,5.07
2018-08-28T08:01:16.863Z,9.87
2018-08-28T08:03:45.356Z,4.73
2018-08-28T08:06:13.862Z,5.80
2018-08-28T08:08:42.339Z,4.10
2018-08-28T08:11:10.827Z,7.13
2018-08-28T08:13:39.326Z,5.07
2018-08-28T08:16:08.019Z,11.07
2018-08-28T08:18:36.724Z,7.90
2018-08-28T08:21:05.363Z,6.20
2018-08-28T08:23:33.842Z,5.80
2018-08-28T08:26:02.336Z,6.20
2018-08-28T08:28:30.851Z,5.40
2018-08-28T08:30:59.364Z,4.87
2018-08-28T08:33:27.835Z,5.20
2018-08-28T08:35:56.310Z,4.93
2018-08-28T08:38:24.818Z,6.50
2018-08-28T08:40:55.484Z,7.37
2018-08-28T08:43:24.323Z,3.43
2018-08-28T08:45:54.152Z,2.93
2018-08-28T08:48:22.594Z,5.60
2018-08-28T08:50:51.232Z,4.50
2018-08-28T08:53:21.167Z,10.83
2018-08-28T08:55:49.844Z,4.10
2018-08-28T08:58:18.552Z,4.30
2018-08-28T09:00:47.329Z,8.10
2018-08-28T09:03:18.158Z,8.20
2018-08-28T09:05:47.909Z,8.47
2018-08-28T09:08:16.451Z,3.53
2018-08-28T09:10:44.832Z,4.83
2018-08-28T09:13:13.326Z,3.30
2018-08-28T09:15:41.800Z,5.77
2018-08-28T09:18:10.286Z,4.97
2018-08-28T09:20:38.823Z,5.00
2018-08-28T09:23:07.353Z,4.50
2018-08-28T09:25:35.858Z,6.17
2018-08-28T09:28:04.420Z,4.80
2018-08-28T09:30:32.849Z,4.60
2018-08-28T09:33:01.284Z,7.87
2018-08-28T09:35:29.687Z,5.80
2018-08-28T09:37:58.130Z,5.07
2018-08-28T09:40:26.562Z,6.43
2018-08-28T09:42:55.003Z,4.47
2018-08-28T09:45:23.467Z,7.80
2018-08-28T09:47:52.062Z,6.13
2018-08-28T09:50:21.176Z,4.93
2018-08-28T09:52:50.475Z,5.10
2018-08-28T09:55:18.930Z,5.73
2018-08-28T09:57:47.427Z,9.33
2018-08-28T10:00:22.028Z,4.00
2018-08-28T10:02:50.470Z,5.47
2018-08-28T10:05:18.986Z,6.27
2018-08-28T10:07:47.527Z,6.50
2018-08-28T10:10:15.950Z,5.87
2018-08-28T10:12:44.416Z,5.90
2018-08-28T10:15:13.281Z,6.07
2018-08-28T10:17:42.177Z,5.43
2018-08-28T10:20:10.733Z,5.97
2018-08-28T10:22:39.194Z,6.00
2018-08-28T10:25:07.840Z,8.20
2018-08-28T10:27:36.344Z,5.73
2018-08-28T10:30:04.873Z,5.30
2018-08-28T10:32:33.345Z,7.50
2018-08-28T10:35:01.848Z,4.20
2018-08-28T10:37:30.333Z,15.57
2018-08-28T10:39:58.836Z,4.70
2018-08-28T10:42:28.383Z,11.00
2018-08-28T10:44:56.818Z,5.70
2018-08-28T10:47:25.340Z,6.17
2018-08-28T10:49:53.823Z,4.33
2018-08-28T10:52:22.324Z,4.97
2018-08-28T10:54:50.849Z,11.10
2018-08-28T10:57:19.391Z,4.30
2018-08-28T10:59:47.817Z,4.10
2018-08-28T11:02:16.282Z,6.23
2018-08-28T11:04:44.708Z,7.13
2018-08-28T11:07:13.092Z,8.13
2018-08-28T11:09:41.496Z,13.43
2018-08-28T11:12:09.922Z,4.83
2018-08-28T11:14:44.943Z,3.37
2018-08-28T11:17:13.280Z,7.10
2018-08-28T11:19:42.727Z,5.30
2018-08-28T11:22:11.105Z,6.80
2018-08-28T11:24:39.454Z,6.30
2018-08-28T11:27:07.911Z,4.57
2018-08-28T11:29:36.306Z,8.57
2018-08-28T11:32:04.727Z,9.30
2018-08-28T11:34:36.022Z,6.87
2018-08-28T11:37:04.539Z,5.60
2018-08-28T11:39:32.920Z,4.13
2018-08-28T11:42:01.509Z,6.23
2018-08-28T11:44:29.958Z,9.60
2018-08-28T11:46:58.507Z,6.20
2018-08-28T11:49:26.968Z,6.00
2018-08-28T11:51:55.484Z,8.17
2018-08-28T11:54:23.990Z,4.30
2018-08-28T11:56:52.509Z,5.70
2018-08-28T11:59:21.030Z,5.27
2018-08-28T12:01:49.486Z,5.43
2018-08-28T12:04:17.939Z,4.93
2018-08-28T12:06:46.435Z,6.17
2018-08-28T12:09:14.895Z,5.97
2018-08-28T12:11:43.358Z,4.97
2018-08-28T12:14:11.906Z,13.00
2018-08-28T12:16:40.326Z,6.33
2018-08-28T12:19:08.804Z,5.60
2018-08-28T12:21:37.232Z,5.90
2018-08-28T12:24:05.770Z,5.77
2018-08-28T12:26:34.360Z,7.83
2018-08-28T12:29:02.778Z,8.80
2018-08-28T12:31:31.227Z,6.87
2018-08-28T12:33:59.852Z,4.53
2018-08-28T12:36:28.346Z,7.43
2018-08-28T12:38:56.886Z,3.97
2018-08-28T12:41:25.505Z,4.13
2018-08-28T12:43:54.033Z,4.53
2018-08-28T12:46:22.541Z,6.93
2018-08-28T12:48:51.027Z,7.50
2018-08-28T12:51:19.546Z,5.60
2018-08-28T12:53:49.221Z,5.23
2018-08-28T12:56:17.717Z,5.30
2018-08-28T12:58:46.200Z,5.63
2018-08-28T13:01:14.774Z,5.80
2018-08-28T13:03:43.248Z,4.40
2018-08-28T13:06:12.122Z,4.67
2018-08-28T13:08:40.668Z,5.67
2018-08-28T13:11:09.201Z,5.70
2018-08-28T13:13:37.781Z,6.07
2018-08-28T13:16:06.606Z,5.83
2018-08-28T13:18:35.230Z,8.20
2018-08-28T13:21:04.002Z,6.00
2018-08-28T13:23:32.524Z,4.20
2018-08-28T13:26:01.347Z,5.23
2018-08-28T13:28:29.800Z,4.30
2018-08-28T13:30:58.446Z,5.20
2018-08-28T13:33:27.056Z,7.13
2018-08-28T13:35:55.670Z,6.73
2018-08-28T13:38:24.285Z,4.20
2018-08-28T13:40:53.896Z,4.10
2018-08-28T13:43:22.502Z,6.47
2018-08-28T13:45:51.011Z,4.70
2018-08-28T13:48:19.600Z,3.43
2018-08-28T13:50:48.175Z,5.57
2018-08-28T13:53:16.805Z,7.00
2018-08-28T13:55:45.363Z,6.80
2018-08-28T13:58:13.953Z,3.80
2018-08-28T14:00:42.722Z,4.73
2018-08-28T14:03:11.308Z,6.03
2018-08-28T14:05:39.882Z,4.80
2018-08-28T14:08:08.403Z,3.67
2018-08-28T14:10:36.957Z,5.33
2018-08-28T14:13:05.539Z,5.07
2018-08-28T14:15:34.023Z,6.77
2018-08-28T14:18:02.628Z,5.77
2018-08-28T14:20:31.163Z,6.13
2018-08-28T14:22:59.758Z,6.87
2018-08-28T14:25:28.737Z,4.93
2018-08-28T14:27:57.453Z,7.03
2018-08-28T14:30:26.215Z,6.00
2018-08-28T14:32:54.807Z,3.50
2018-08-28T14:35:23.445Z,7.50
2018-08-28T14:37:52.022Z,6.03
2018-08-28T14:40:20.734Z,3.63
2018-08-28T14:42:49.406Z,5.33
2018-08-28T14:45:18.083Z,5.00
2018-08-28T14:47:46.833Z,5.97
2018-08-28T14:50:15.678Z,3.90
2018-08-28T14:52:44.326Z,6.50
2018-08-28T14:55:12.820Z,4.47
2018-08-28T14:57:41.394Z,6.30
2018-08-28T15:00:10.163Z,4.87
2018-08-28T15:02:38.750Z,6.20
2018-08-28T15:05:07.400Z,5.33
2018-08-28T15:07:36.076Z,3.77
2018-08-28T15:10:04.711Z,3.83
2018-08-28T15:12:33.167Z,6.10
2018-08-28T15:15:01.709Z,8.00
2018-08-28T15:17:30.310Z,5.83
2018-08-28T15:19:58.794Z,5.00
2018-08-28T15:22:27.284Z,7.20
2018-08-28T15:24:55.780Z,8.63
2018-08-28T15:27:24.363Z,4.10
2018-08-28T15:29:52.854Z,7.17
2018-08-28T15:32:21.654Z,4.40
2018-08-28T15:34:50.272Z,3.87
2018-08-28T15:37:18.851Z,8.57
2018-08-28T15:39:47.361Z,7.73
2018-08-28T15:42:15.880Z,4.20
2018-08-28T15:44:44.352Z,9.97
2018-08-28T15:47:12.807Z,3.40
2018-08-28T15:49:41.252Z,6.90
2018-08-28T15:52:09.701Z,5.80
2018-08-28T15:54:38.171Z,6.00
2018-08-28T15:57:06.830Z,5.40
2018-08-28T15:59:35.290Z,4.93
2018-08-28T16:02:04.006Z,7.23
2018-08-28T16:04:32.547Z,4.47
2018-08-28T16:07:00.997Z,6.50
2018-08-28T16:09:29.480Z,6.63
2018-08-28T16:11:57.910Z,7.27
2018-08-28T16:14:26.504Z,4.67
2018-08-28T16:16:54.910Z,7.07
2018-08-28T16:19:23.435Z,6.40
2018-08-28T16:21:54.568Z,8.10
2018-08-28T16:24:23.258Z,4.73
2018-08-28T16:26:52.217Z,5.50
2018-08-28T16:29:20.677Z,4.93
2018-08-28T16:31:49.136Z,6.23
2018-08-28T16:34:17.666Z,5.90
2018-08-28T16:36:46.114Z,7.03
2018-08-28T16:39:14.661Z,7.33
2018-08-28T16:41:43.103Z,4.40
2018-08-28T16:44:11.596Z,5.77
2018-08-28T16:46:40.148Z,7.70
2018-08-28T16:49:08.616Z,7.17
2018-08-28T16:51:37.096Z,8.37
2018-08-28T16:54:05.541Z,5.37
2018-08-28T16:56:34.058Z,5.70
2018-08-28T16:59:02.699Z,5.43
2018-08-28T17:01:31.282Z,5.70
2018-08-28T17:03:59.687Z,8.53
2018-08-28T17:06:28.258Z,10.33
2018-08-28T17:08:56.716Z,9.33
2018-08-28T17:11:25.240Z,6.43
2018-08-28T17:13:53.655Z,8.60
2018-08-28T17:16:22.206Z,11.40
2018-08-28T17:18:50.670Z,14.87
2018-08-28T17:21:19.222Z,9.63
2018-08-28T17:23:47.694Z,4.67
2018-08-28T17:26:16.193Z,7.70
2018-08-28T17:28:44.689Z,6.07
2018-08-28T17:31:13.287Z,16.03
2018-08-28T17:33:41.827Z,10.90
2018-08-28T17:36:10.380Z,7.90
2018-08-28T17:38:38.935Z,3.80
2018-08-28T17:41:07.455Z,7.43
2018-08-28T17:43:36.054Z,10.83
2018-08-28T17:46:04.780Z,8.90
2018-08-28T17:48:33.508Z,10.93
2018-08-28T17:51:02.052Z,9.73
2018-08-28T17:53:30.693Z,7.83
2018-08-28T17:55:59.168Z,6.77
2018-08-28T17:58:27.675Z,6.53
2018-08-28T18:00:56.133Z,6.60
2018-08-28T18:03:24.591Z,6.73
2018-08-28T18:05:53.058Z,6.77
2018-08-28T18:08:21.555Z,7.20
2018-08-28T18:10:50.199Z,7.10
2018-08-28T18:13:18.484Z,8.80
2018-08-28T18:15:46.973Z,6.37
2018-08-28T18:18:15.607Z,9.90
2018-08-28T18:20:44.058Z,4.30
2018-08-28T18:23:15.432Z,7.40
2018-08-28T18:25:43.854Z,9.23
2018-08-28T18:28:12.287Z,7.53
2018-08-28T18:30:40.744Z,10.77
2018-08-28T18:33:09.212Z,7.50
2018-08-28T18:35:37.651Z,6.57
2018-08-28T18:38:06.123Z,6.97
2018-08-28T18:40:35.266Z,4.53
2018-08-28T18:43:03.786Z,5.60
2018-08-28T18:45:32.190Z,8.10
2018-08-28T18:48:00.621Z,8.37
2018-08-28T18:50:28.986Z,7.73
2018-08-28T18:52:57.413Z,7.67
2018-08-28T18:55:25.830Z,8.67
2018-08-28T18:57:54.267Z,6.63
2018-08-28T19:00:22.698Z,7.70
2018-08-28T19:02:51.275Z,6.97
2018-08-28T19:05:19.602Z,7.43
2018-08-28T19:07:48.077Z,6.63
2018-08-28T19:10:16.452Z,6.40
2018-08-28T19:12:44.915Z,11.07
2018-08-28T19:15:13.339Z,6.50
2018-08-28T19:17:41.776Z,16.13
2018-08-28T19:20:10.255Z,6.93
2018-08-28T19:22:38.863Z,8.43
2018-08-28T19:25:07.347Z,7.10
2018-08-28T19:27:35.829Z,6.17
2018-08-28T19:30:04.350Z,6.40
2018-08-28T19:32:32.851Z,7.73
2018-08-28T19:35:01.327Z,9.20
2018-08-28T19:37:29.913Z,18.60
2018-08-28T19:39:58.817Z,4.40
2018-08-28T19:42:33.717Z,10.93
2018-08-28T19:45:02.352Z,7.57
2018-08-28T19:47:30.815Z,8.20
2018-08-28T19:49:59.356Z,9.67
2018-08-28T19:52:27.773Z,7.60
2018-08-28T19:54:56.249Z,10.10
2018-08-28T19:57:24.727Z,7.50
2018-08-28T19:59:53.430Z,15.10
2018-08-28T20:02:21.851Z,7.40
2018-08-28T20:04:50.358Z,14.43
2018-08-28T20:07:18.840Z,6.47
2018-08-28T20:09:47.547Z,6.87
2018-08-28T20:12:16.014Z,5.83
2018-08-28T20:14:44.554Z,8.73
2018-08-28T20:17:13.283Z,6.70
2018-08-28T20:19:41.839Z,6.40
2018-08-28T20:22:11.416Z,5.50
2018-08-28T20:24:40.063Z,6.27
2018-08-28T20:27:08.829Z,5.23
2018-08-28T20:29:37.320Z,6.80
2018-08-28T20:32:05.936Z,5.50
2018-08-28T20:34:34.407Z,8.67
2018-08-28T20:37:03.058Z,8.07
2018-08-28T20:39:31.424Z,17.13
2018-08-28T20:41:59.980Z,6.97
2018-08-28T20:44:28.383Z,15.13
2018-08-28T20:46:56.816Z,8.87
2018-08-28T20:49:25.250Z,6.83
2018-08-28T20:51:53.731Z,9.53
2018-08-28T20:54:22.235Z,8.20
2018-08-28T20:56:50.699Z,14.20
2018-08-28T20:59:19.176Z,8.90
2018-08-28T21:01:47.554Z,8.23
2018-08-28T21:04:16.097Z,7.97
2018-08-28T21:06:44.463Z,5.90
2018-08-28T21:09:12.901Z,7.10
2018-08-28T21:11:41.345Z,6.73
2018-08-28T21:14:09.787Z,8.63
2018-08-28T21:16:38.249Z,8.73
2018-08-28T21:19:06.639Z,8.30
2018-08-28T21:21:35.079Z,8.73
2018-08-28T21:24:03.491Z,8.03
2018-08-28T21:26:31.911Z,7.13
2018-08-28T21:29:00.479Z,6.70
2018-08-28T21:31:28.839Z,6.70
2018-08-28T21:33:57.247Z,7.93
2018-08-28T21:36:25.685Z,6.70
2018-08-28T21:38:54.109Z,7.00
2018-08-28T21:41:22.533Z,9.83
2018-08-28T21:43:51.119Z,8.37
2018-08-28T21:46:19.575Z,19.53
2018-08-28T21:48:47.968Z,5.63
2018-08-28T21:51:16.441Z,7.03
2018-08-28T21:53:44.883Z,9.93
2018-08-28T21:56:13.408Z,6.67
2018-08-28T21:58:41.971Z,17.53
2018-08-28T22:01:11.947Z,8.97
2018-08-28T22:03:41.568Z,9.43
2018-08-28T22:06:16.252Z,12.17
2018-08-28T22:08:44.989Z,7.27
2018-08-28T22:11:13.389Z,6.63
2018-08-28T22:13:41.743Z,12.10
2018-08-28T22:16:10.246Z,11.67
2018-08-28T22:18:38.595Z,12.00
2018-08-28T22:21:06.931Z,7.70
2018-08-28T22:23:35.258Z,7.00
2018-08-28T22:26:03.633Z,16.20
2018-08-28T22:28:31.986Z,8.73
2018-08-28T22:31:00.449Z,7.03
2018-08-28T22:33:29.020Z,12.93
2018-08-28T22:35:57.475Z,10.27
2018-08-28T22:38:25.948Z,11.47
2018-08-28T22:40:54.335Z,9.67
2018-08-28T22:43:23.604Z,12.83
2018-08-28T22:45:52.228Z,8.20
2018-08-28T22:48:20.571Z,7.43
2018-08-28T22:50:48.931Z,7.73
2018-08-28T22:53:17.273Z,11.20
2018-08-28T22:55:45.594Z,8.23
2018-08-28T22:58:14.008Z,8.97
2018-08-28T23:00:42.497Z,6.77
2018-08-28T23:03:10.962Z,13.60
2018-08-28T23:05:39.424Z,7.77
2018-08-28T23:08:07.934Z,8.73
2018-08-28T23:10:37.016Z,9.40
2018-08-28T23:13:05.407Z,9.63
2018-08-28T23:15:33.735Z,8.20
2018-08-28T23:18:02.108Z,9.33
2018-08-28T23:20:30.432Z,13.83
2018-08-28T23:22:58.767Z,9.07
2018-08-28T23:25:27.130Z,10.63
2018-08-28T23:27:55.474Z,9.00
2018-08-28T23:30:23.797Z,9.47
2018-08-28T23:32:52.157Z,11.33
2018-08-28T23:35:20.469Z,7.60
2018-08-28T23:37:48.795Z,10.80
2018-08-28T23:40:17.130Z,8.30
2018-08-28T23:42:45.486Z,8.97
2018-08-28T23:45:13.860Z,12.47
2018-08-28T23:47:42.241Z,8.30
2018-08-28T23:50:10.604Z,16.17
2018-08-28T23:52:38.970Z,8.00
2018-08-28T23:55:07.426Z,10.60
2018-08-28T23:57:35.787Z,8.90
